Flight Track Log - Related Links

Times and Time Zones

All times are in EDT time to prevent confusion due to time zone crossing. See the CTL312 flight status page for this flight to view local times or setup timezone preferences in your user account.

Time Position Orientation Groundspeed Altitude Reporting Facility
EDT Latitude Longitude Course Direction KTS MPH feet Rate Location/Type
Tue 22:02:31 41.5275 -81.6758 339° North 119 137 1,000  Level Cleveland Center
Tue 22:03:49 41.5833 -81.7047 339° North 189 217 2,000 734 Climbing Cleveland Center
Tue 22:04:50 41.6164 -81.7469 316° Northwest 169 194 2,700 672 Climbing Cleveland Center
Tue 22:05:45 41.6303 -81.8028 288° West 169 194 3,300 661 Climbing Cleveland Center
Tue 22:06:39 41.6464 -81.8558 292° West 167 192 3,900 574 Climbing Cleveland Center
Tue 22:07:40 41.6625 -81.9144 290° West 168 193 4,400 522 Climbing Cleveland Center
Tue 22:08:34 41.6744 -81.9703 286° West 165 190 4,900 470 Climbing Cleveland Center
Tue 22:09:35 41.6903 -82.0264 291° West 168 193 5,300 417 Climbing Cleveland Center
Tue 22:10:29 41.7083 -82.0794 295° West 171 197 5,700 273 Climbing Cleveland Center
Tue 22:12:31 41.7358 -82.1997 287° West 172 198 6,100 132 Climbing Cleveland Center
Tue 22:13:31 41.7517 -82.2642 288° West 177 204 6,100 -58 Level Cleveland Center
Tue 22:14:14 41.7636 -82.3064 291° West 175 201 6,000 -47 Descending Cleveland Center
Tue 22:15:39 41.8064 -82.3744 310° West 180 207 6,000  Level Cleveland Center
Tue 22:17:00 41.8225 -82.4635 284° West  Level FlightAware Approximate
Tue 22:18:53 41.9228 -82.5228 339° North 178 205 6,000  Level Cleveland Center
Tue 22:19:42 41.9511 -82.5600 316° Northwest 178 205 6,000  Level Cleveland Center
Tue 22:20:49 41.9942 -82.6114 318° Northwest 177 204 6,000  Level Cleveland Center
Tue 22:21:49 42.0289 -82.6544 317° Northwest 180 207 6,000  Level Cleveland Center
Tue 22:23:02 42.0842 -82.6983 329° Northwest 179 206 6,000  Level Cleveland Center
Tue 22:24:00 42.0710 -82.7317 339° North  Level FlightAware Approximate
Tue 22:24:03 42.1275 -82.7306 331° Northwest 179 206 6,000  Level Cleveland Center
Tue 22:25:58 42.2097 -82.7950 330° Northwest 182 209 6,000  Level Cleveland Center
Tue 22:26:59 42.2528 -82.8272 331° Northwest 181 208 6,000  Level Cleveland Center
Tue 22:27:53 42.2917 -82.8597 328° Northwest 179 206 6,000  Level Cleveland Center
Tue 22:29:00 42.3389 -82.9006 327° Northwest 180 207 6,000  Level Cleveland Center
Tue 22:30:01 42.3839 -82.9361 330° Northwest 181 208 6,000  Level Cleveland Center
Tue 22:31:02 42.4250 -82.9714 328° Northwest 178 205 6,000 -209 Level Cleveland Center
Tue 22:31:56 42.4661 -83.0039 330° Northwest 186 214 5,600 -678 Descending Cleveland Center
Tue 22:32:57 42.5150 -83.0481 326° Northwest 207 238 4,700 -826 Descending Cleveland Center
Tue 22:33:45 42.5539 -83.0806 328° Northwest 203 234 4,100 -385 Descending Cleveland Center
Tue 22:34:46 42.5842 -83.1353 307° West 175 201 4,000 -344 Descending Cleveland Center
Tue 22:35:47 42.6078 -83.1956 298° West 192 221 3,400 -545 Descending Cleveland Center
Tue 22:36:47 42.6333 -83.2558 300° West 182 209 2,900 -440 Descending Cleveland Center
Tue 22:37:36 42.6511 -83.3017 298° West 164 189 2,600 -436 Descending Cleveland Center
Tue 22:38:37 42.6664 -83.3561 291° West 147 169 2,100 -492 Descending Cleveland Center
Tue 22:40:00 42.6500 -83.4167 304° West  Level FlightAware Approximate
Tue 22:47:00 42.6656 -83.4205 304° West  Level Estimated
Tue 22:48:00 42.6656 -83.4205 304° West  Level Estimated

Login

Don't have an account? Register now (free) for customized features, flight alerts, and more!